Skip to content
You are here: Gozo Weather
Gozo Weather Station for the very latest live weather conditions from Gozo and Malta
 
 TIME   TEMPERATURE   WINDSPEED   DIRECTION   HUMIDITY   BAROMETER   RAINFALL 
10:35 18.2°C (64.8°F) 22.2 kmh (13.8 mph) WSW 60% 1008.0hPa (29.77 inHg) 2.0mm (0.08 in.)
9:35 18.2°C (64.8 °F) 14.8 kmh (9.2 mph) WSW 56% 1008.0hPa (29.77 inHg) 2.0mm (0.08 in.)
8:35 19.0°C (66.2 °F) 13.0 kmh (8.1 mph) WSW 50% 1008.0hPa (29.77 inHg) 2.0mm (0.08 in.)
7:35 19.1°C (66.4 °F) 16.7 kmh (10.4 mph) WSW 50% 1008.0hPa (29.77 inHg) 2.0mm (0.08 in.)
6:32 19.1°C (66.4 °F) 16.7 kmh (10.4 mph) WNW 52% 1008.0hPa (29.77 inHg) 2.0mm (0.08 in.)
5:32 19.8°C (67.6 °F) 16.7 kmh (10.4 mph) WNW 49% 1009.0hPa (29.80 inHg) 2.0mm (0.08 in.)
4:32 20.7°C (69.3 °F) 14.8 kmh (9.2 mph) SW 44% 1009.0hPa (29.80 inHg) 2.0mm (0.08 in.)
3:32 20.7°C (69.3 °F) 14.8 kmh (9.2 mph) WNW 44% 1010.0hPa (29.83 inHg) 2.0mm (0.08 in.)
2:32 20.4°C (68.7 °F) 22.2 kmh (13.8 mph) N 43% 1010.0hPa (29.83 inHg) 2.0mm (0.08 in.)
1:32 20.4°C (68.7 °F) 22.2 kmh (13.8 mph) NNW 45% 1011.0hPa (29.85 inHg) 2.0mm (0.08 in.)
12:32 20.3°C (68.5 °F) 35.2 kmh (21.9 mph) N 37% 1011.0hPa (29.85 inHg) 2.0mm (0.08 in.)
11:32 19.9°C (67.8 °F) 25.9 kmh (16.1 mph) N 37% 1012.0hPa (29.88 inHg) 2.0mm (0.08 in.)
10:32 19.4°C (66.9 °F) 24.1 kmh (15.0 mph) WNW 37% 1011.0hPa (29.85 inHg) 2.0mm (0.08 in.)
9:30 19.1°C (66.4 °F) 22.2 kmh (13.8 mph) NNW 41% 1011.0hPa (29.85 inHg) 2.0mm (0.08 in.)
8:17 18.2°C (64.8 °F) 27.8 kmh (17.3 mph) N 43% 1010.0hPa (29.83 inHg) 2.0mm (0.08 in.)
7:15 18.0°C (64.4 °F) 29.6 kmh (18.4 mph) N 45% 1010.0hPa (29.83 inHg) 2.0mm (0.08 in.)
6:15 18.2°C (64.8 °F) 29.6 kmh (18.4 mph) N 46% 1009.0hPa (29.80 inHg) 2.0mm (0.08 in.)
5:15 18.2°C (64.8 °F) 37.0 kmh (23.0 mph) NNW 48% 1009.0hPa (29.80 inHg) 2.0mm (0.08 in.)
4:15 18.3°C (64.9 °F) 37.0 kmh (23.0 mph) N 56% 1009.0hPa (29.80 inHg) 2.0mm (0.08 in.)
3:15 18.0°C (64.4 °F) 20.4 kmh (12.7 mph) NNW 68% 1008.0hPa (29.77 inHg) 2.0mm (0.08 in.)
2:15 17.6°C (63.7 °F) 11.1 kmh (6.9 mph) WNW 68% 1009.0hPa (29.80 inHg) 2.0mm (0.08 in.)
1:15 19.4°C (66.9 °F) 31.5 kmh (19.6 mph) N 58% 1008.0hPa (29.77 inHg) 1.0mm (0.04 in.)
12:15 19.6°C (67.3 °F) 20.4 kmh (12.7 mph) N 63% 1008.0hPa (29.77 inHg) 0.0mm (0.00 in.)
11:15 20.4°C (68.7 °F) 20.4 kmh (12.7 mph) NNW 57% 1008.0hPa (29.77 inHg) 0.0mm (0.00 in.)

You need the latest version of Flash Player to view some of our content.


Why not download and install the latest version now?
It will only take you a moment and will ensure that you can view all the latest flash designed websites.

Translate this page

Animated Satellite

Click per aprire http://www.gozo.ws/Animation.php
copyright 2014 EUMETSAT

European Lightning Activity


Please click image for full size

Sponsored Links